Gwyme, Virginia
Current Conditions -  °F | °C
As of 6:15 AM on Saturday 20 Dec 2014 (Local Time) from KW75 Reporting Station
Clear Clear  
Wind Chill: 32°   Ceiling: Unl
Heat Index: 32°   Visibility: 10mi
Dew Point: 25°   Wind: 3mph
Humidity: 75%   Direction: 310°NW
Pressure: 30.29"   Gusts: NA
Location:  37.4982°N, 76.2873°W
Report Text: KW75 201115Z AUTO 31003KT 10SM CLR 00/M04 A3029 RMK AO1 T00011038
Loading
Personal Weather Stations






























Interactive Weather Map New forecast layout! Learn more

10-Day Weather Forecast

Advertisements
Track Severe Weather on mobile